createdAt,value
2022-08-17T00:01:51.421Z,99.90
2022-08-17T00:04:21.314Z,99.90
2022-08-17T00:06:49.598Z,99.90
2022-08-17T00:09:18.296Z,99.90
2022-08-17T00:12:42.083Z,99.90
2022-08-17T00:14:36.308Z,99.90
2022-08-17T00:17:06.471Z,99.90
2022-08-17T00:19:34.002Z,99.90
2022-08-17T00:22:31.580Z,99.90
2022-08-17T00:24:50.327Z,99.90
2022-08-17T00:27:17.713Z,99.90
2022-08-17T00:29:45.831Z,99.90
2022-08-17T00:33:14.716Z,99.90
2022-08-17T00:35:03.537Z,99.90
2022-08-17T00:37:30.332Z,99.90
2022-08-17T00:39:57.126Z,99.90
2022-08-17T00:42:28.827Z,99.90
2022-08-17T00:44:57.700Z,99.90
2022-08-17T00:47:24.432Z,99.90
2022-08-17T00:49:51.163Z,99.90
2022-08-17T00:52:22.958Z,99.90
2022-08-17T00:54:53.969Z,99.90
2022-08-17T00:57:26.108Z,99.90
2022-08-17T01:00:02.792Z,99.90
2022-08-17T01:02:40.514Z,99.90
2022-08-17T01:05:16.334Z,99.90
2022-08-17T01:07:47.671Z,99.90
2022-08-17T01:10:58.995Z,99.90
2022-08-17T01:13:04.035Z,99.90
2022-08-17T01:15:34.200Z,99.90
2022-08-17T01:18:00.952Z,99.90
2022-08-17T01:20:27.520Z,99.90
2022-08-17T01:22:54.395Z,99.90
2022-08-17T01:25:22.215Z,99.90
2022-08-17T01:27:49.715Z,99.90
2022-08-17T01:30:59.034Z,99.90
2022-08-17T01:33:04.418Z,99.90
2022-08-17T01:35:31.328Z,99.90
2022-08-17T01:37:58.103Z,99.90
2022-08-17T01:40:35.150Z,99.90
2022-08-17T01:43:10.340Z,99.90
2022-08-17T01:45:44.066Z,99.90
2022-08-17T01:48:12.020Z,99.90
2022-08-17T01:50:41.859Z,99.90
2022-08-17T01:53:13.823Z,99.90
2022-08-17T01:55:47.207Z,99.90
2022-08-17T01:58:14.147Z,99.90
2022-08-17T02:00:59.492Z,99.90
2022-08-17T02:03:27.174Z,99.90
2022-08-17T02:05:53.948Z,99.90
2022-08-17T02:08:39.562Z,99.90
2022-08-17T02:11:14.543Z,99.90
2022-08-17T02:13:41.952Z,99.90
2022-08-17T02:16:08.686Z,99.90
2022-08-17T02:18:35.390Z,99.90
2022-08-17T02:21:02.562Z,99.90
2022-08-17T02:23:32.242Z,99.90
2022-08-17T02:26:00.349Z,99.90
2022-08-17T02:28:28.455Z,99.90
2022-08-17T02:31:01.927Z,99.90
2022-08-17T02:33:41.941Z,99.90
2022-08-17T02:36:11.962Z,99.90
2022-08-17T02:38:39.692Z,99.90
2022-08-17T02:41:06.750Z,99.90
2022-08-17T02:43:33.733Z,99.90
2022-08-17T02:46:00.571Z,99.90
2022-08-17T02:48:30.534Z,99.90
2022-08-17T02:50:58.963Z,99.90
2022-08-17T03:20:55.692Z,99.90
2022-08-17T04:35:37.155Z,99.90
2022-08-17T05:23:12.401Z,99.90
2022-08-17T06:09:49.148Z,98.50
2022-08-17T06:27:53.853Z,98.20
2022-08-17T06:45:40.516Z,93.20
2022-08-17T07:26:28.060Z,80.10
2022-08-17T07:31:26.150Z,79.00
2022-08-17T07:34:06.762Z,77.50
2022-08-17T07:47:10.253Z,74.10
2022-08-17T07:49:40.112Z,73.70
2022-08-17T08:02:38.539Z,65.70
2022-08-17T08:12:41.529Z,61.60
2022-08-17T08:17:49.565Z,60.00
2022-08-17T08:23:20.273Z,58.50
2022-08-17T08:26:21.213Z,58.50
2022-08-17T08:29:11.153Z,57.90
2022-08-17T08:31:57.813Z,57.90
2022-08-17T08:34:49.699Z,57.10
2022-08-17T08:37:45.287Z,56.50
2022-08-17T08:40:51.869Z,56.30
2022-08-17T08:43:54.752Z,55.20
2022-08-17T08:46:36.359Z,54.40
2022-08-17T08:49:26.269Z,51.80
2022-08-17T08:52:16.741Z,51.70
2022-08-17T08:54:58.472Z,50.40
2022-08-17T09:00:17.212Z,50.50
2022-08-17T09:05:52.766Z,50.10
2022-08-17T09:08:39.408Z,49.90
2022-08-17T09:11:31.098Z,49.40
2022-08-17T09:13:58.800Z,47.80
2022-08-17T09:44:52.707Z,32.00
2022-08-17T10:02:55.164Z,26.50
2022-08-17T10:05:31.404Z,26.10
2022-08-17T10:18:42.390Z,25.00
2022-08-17T13:32:07.927Z,35.10
2022-08-17T13:53:03.709Z,36.30
2022-08-17T14:03:04.672Z,33.60
2022-08-17T15:42:52.839Z,34.20
2022-08-17T17:20:45.787Z,45.10
2022-08-17T20:44:01.012Z,78.40
